createdAt,value
2018-01-14T00:02:04.763Z,99323.08
2018-01-14T00:04:33.054Z,99312.02
2018-01-14T00:07:01.556Z,99326.62
2018-01-14T00:09:29.799Z,99325.52
2018-01-14T00:11:58.083Z,99325.91
2018-01-14T00:14:26.389Z,99331.26
2018-01-14T00:16:54.922Z,99328.83
2018-01-14T00:19:23.215Z,99328.90
2018-01-14T00:21:51.810Z,99324.81
2018-01-14T00:24:20.077Z,99329.34
2018-01-14T00:26:49.546Z,99330.69
2018-01-14T00:29:17.823Z,99310.87
2018-01-14T00:31:46.124Z,99322.88
2018-01-14T00:34:14.568Z,99323.02
2018-01-14T00:36:43.036Z,99320.17
2018-01-14T00:39:12.264Z,99329.45
2018-01-14T00:41:40.564Z,99326.88
2018-01-14T00:44:08.831Z,99328.92
2018-01-14T00:46:37.159Z,99328.39
2018-01-14T00:49:05.457Z,99296.48
2018-01-14T00:51:34.084Z,99318.77
2018-01-14T00:54:02.406Z,99319.38
2018-01-14T00:56:30.761Z,99327.14
2018-01-14T00:58:59.027Z,99325.93
2018-01-14T01:01:27.279Z,99323.13
2018-01-14T01:03:55.575Z,99331.23
2018-01-14T01:06:23.848Z,99326.72
2018-01-14T01:08:52.153Z,99329.19
2018-01-14T01:11:20.492Z,99330.19
2018-01-14T01:13:48.770Z,99321.34
2018-01-14T01:16:17.042Z,99331.95
2018-01-14T01:18:45.377Z,99329.30
2018-01-14T01:21:13.903Z,99325.75
2018-01-14T01:23:42.298Z,99334.77
2018-01-14T01:26:10.538Z,99324.35
2018-01-14T01:28:38.861Z,99325.73
2018-01-14T01:31:07.205Z,99326.89
2018-01-14T01:33:35.453Z,99309.02
2018-01-14T01:36:03.823Z,99317.73
2018-01-14T01:38:32.112Z,99318.05
2018-01-14T01:41:00.419Z,99325.34
2018-01-14T01:43:28.703Z,99320.59
2018-01-14T01:45:57.101Z,99321.55
2018-01-14T01:48:25.345Z,99322.23
2018-01-14T01:50:53.643Z,99319.52
2018-01-14T01:53:21.911Z,99323.45
2018-01-14T01:55:50.203Z,99321.83
2018-01-14T01:58:18.495Z,99319.84
2018-01-14T02:00:46.790Z,99319.25
2018-01-14T02:03:15.254Z,99305.11
2018-01-14T02:05:43.532Z,99313.61
2018-01-14T02:08:11.890Z,99316.47
2018-01-14T02:10:40.165Z,99319.27
2018-01-14T02:13:08.455Z,99306.27
2018-01-14T02:15:36.777Z,99318.05
2018-01-14T02:18:05.089Z,99315.00
2018-01-14T02:20:33.374Z,99314.87
2018-01-14T02:23:01.687Z,99320.00
2018-01-14T02:25:30.663Z,99320.85
2018-01-14T02:27:58.958Z,99319.25
2018-01-14T02:30:27.219Z,99321.79
2018-01-14T02:32:55.519Z,99319.95
2018-01-14T02:35:23.842Z,99320.16
2018-01-14T02:37:52.120Z,99312.34
2018-01-14T02:40:20.381Z,99314.13
2018-01-14T02:42:48.679Z,99316.24
2018-01-14T02:45:17.291Z,99311.34
2018-01-14T02:47:45.538Z,99318.62
2018-01-14T02:50:13.864Z,99311.72
2018-01-14T02:52:42.150Z,99311.66
2018-01-14T02:55:10.483Z,99313.38
2018-01-14T02:57:38.751Z,99323.61
2018-01-14T03:00:07.073Z,99322.86
2018-01-14T03:02:35.378Z,99321.54
2018-01-14T03:05:03.683Z,99320.50
2018-01-14T03:07:31.955Z,99327.34
2018-01-14T03:10:00.247Z,99318.67
2018-01-14T03:12:28.521Z,99318.77
2018-01-14T03:14:56.816Z,99322.53
2018-01-14T03:17:25.103Z,99301.41
2018-01-14T03:19:53.447Z,99317.52
2018-01-14T03:22:21.719Z,99318.64
2018-01-14T03:24:50.008Z,99321.09
2018-01-14T03:27:18.296Z,99321.00
2018-01-14T03:29:46.577Z,99329.23
2018-01-14T03:32:14.887Z,99329.30
2018-01-14T03:34:43.156Z,99323.48
2018-01-14T03:37:11.461Z,99321.91
2018-01-14T03:39:39.767Z,99318.38
2018-01-14T03:42:08.059Z,99322.37
2018-01-14T03:44:36.334Z,99321.77
2018-01-14T03:47:05.334Z,99317.80
2018-01-14T03:49:33.611Z,99312.75
2018-01-14T03:52:01.912Z,99310.41
2018-01-14T03:54:30.202Z,99312.96
2018-01-14T03:56:58.539Z,99315.66
2018-01-14T03:59:26.878Z,99317.64
2018-01-14T04:01:55.162Z,99318.04
2018-01-14T04:04:23.454Z,99327.16
2018-01-14T04:06:51.730Z,99323.80
2018-01-14T04:09:20.031Z,99318.00
2018-01-14T04:11:48.309Z,99312.02
2018-01-14T04:14:16.610Z,99313.20
2018-01-14T04:16:44.900Z,99316.09
2018-01-14T04:19:13.208Z,99312.56
2018-01-14T04:21:41.466Z,99303.81
2018-01-14T04:24:09.789Z,99299.70
2018-01-14T04:26:38.062Z,99308.16
2018-01-14T04:29:06.366Z,99303.71
2018-01-14T04:31:34.672Z,99313.23
2018-01-14T04:34:02.999Z,99307.98
2018-01-14T04:36:31.279Z,99320.86
2018-01-14T04:38:59.564Z,99307.31
2018-01-14T04:41:27.850Z,99319.52
2018-01-14T04:43:56.180Z,99311.18
2018-01-14T04:46:24.458Z,99320.36
2018-01-14T04:48:52.718Z,99321.96
2018-01-14T04:51:21.031Z,99317.55
2018-01-14T04:53:49.303Z,99323.82
2018-01-14T04:56:17.611Z,99336.70
2018-01-14T04:58:45.888Z,99330.44
2018-01-14T05:01:14.184Z,99334.34
2018-01-14T05:03:42.753Z,99332.19
2018-01-14T05:06:11.060Z,99334.91
2018-01-14T05:08:39.328Z,99342.51
2018-01-14T05:11:07.639Z,99343.09
2018-01-14T05:13:35.934Z,99341.40
2018-01-14T05:16:04.232Z,99344.42
2018-01-14T05:18:32.510Z,99346.86
2018-01-14T05:21:00.783Z,99341.17
2018-01-14T05:23:29.073Z,99345.71
2018-01-14T05:25:57.346Z,99349.16
2018-01-14T05:28:25.657Z,99350.20
2018-01-14T05:30:53.957Z,99347.27
2018-01-14T05:33:22.263Z,99353.49
2018-01-14T05:35:50.547Z,99351.09
2018-01-14T05:38:18.834Z,99354.97
2018-01-14T05:40:47.113Z,99352.44
2018-01-14T05:43:15.435Z,99354.72
2018-01-14T05:45:43.719Z,99347.86
2018-01-14T05:48:12.343Z,99351.09
2018-01-14T05:50:40.623Z,99355.04
2018-01-14T05:53:08.934Z,99341.75
2018-01-14T05:55:37.467Z,99362.33
2018-01-14T05:58:05.748Z,99358.22
2018-01-14T06:00:34.636Z,99354.08
2018-01-14T06:03:02.929Z,99364.38
2018-01-14T06:05:31.221Z,99360.55
2018-01-14T06:07:59.540Z,99364.74
2018-01-14T06:10:27.846Z,99363.47
2018-01-14T06:12:56.128Z,99364.98
2018-01-14T06:15:24.428Z,99351.06
2018-01-14T06:17:52.690Z,99366.52
2018-01-14T06:20:20.986Z,99369.89
2018-01-14T06:22:49.262Z,99374.59
2018-01-14T06:25:17.592Z,99371.03
2018-01-14T06:27:45.855Z,99373.92
2018-01-14T06:30:14.168Z,99368.73
2018-01-14T06:32:42.431Z,99367.53
2018-01-14T06:35:10.743Z,99370.09
2018-01-14T06:37:38.998Z,99369.81
2018-01-14T06:40:07.276Z,99364.06
2018-01-14T06:42:35.638Z,99368.66
2018-01-14T06:45:04.958Z,99366.77
2018-01-14T06:47:33.237Z,99368.69
2018-01-14T06:50:01.509Z,99369.34
2018-01-14T06:52:29.815Z,99370.16
2018-01-14T06:54:58.100Z,99373.02
2018-01-14T06:57:26.407Z,99366.05
2018-01-14T06:59:54.687Z,99362.77
2018-01-14T07:02:23.067Z,99372.67
2018-01-14T07:04:51.377Z,99374.43
2018-01-14T07:07:19.655Z,99379.27
2018-01-14T07:09:47.944Z,99370.06
2018-01-14T07:12:16.215Z,99378.91
2018-01-14T07:14:44.531Z,99371.55
2018-01-14T07:17:12.836Z,99359.69
2018-01-14T07:19:41.156Z,99357.06
2018-01-14T07:22:09.430Z,99352.97
2018-01-14T07:24:37.782Z,99371.61
2018-01-14T07:27:06.057Z,99378.76
2018-01-14T07:29:34.790Z,99375.70
2018-01-14T07:32:03.068Z,99376.89
2018-01-14T07:34:31.548Z,99379.16
2018-01-14T07:36:59.867Z,99382.69
2018-01-14T07:39:28.145Z,99378.26
2018-01-14T07:41:56.462Z,99380.38
2018-01-14T07:44:24.763Z,99381.39
2018-01-14T07:46:53.084Z,99367.10
2018-01-14T07:49:21.385Z,99375.81
2018-01-14T07:51:49.725Z,99366.72
2018-01-14T07:54:18.016Z,99379.83
2018-01-14T07:56:46.320Z,99375.06
2018-01-14T07:59:14.614Z,99383.35
2018-01-14T08:01:42.948Z,99383.63
2018-01-14T08:04:11.254Z,99392.83
2018-01-14T08:06:39.525Z,99396.84
2018-01-14T08:09:07.824Z,99388.31
2018-01-14T08:11:36.113Z,99387.59
2018-01-14T08:14:04.716Z,99391.59
2018-01-14T08:16:33.047Z,99391.62
2018-01-14T08:19:01.347Z,99393.08
2018-01-14T08:21:29.616Z,99399.23
2018-01-14T08:23:57.927Z,99397.72
2018-01-14T08:26:26.506Z,99364.23
2018-01-14T08:28:54.812Z,99398.50
2018-01-14T08:31:23.077Z,99409.03
2018-01-14T08:33:51.398Z,99411.08
2018-01-14T08:36:19.684Z,99407.67
2018-01-14T08:38:47.970Z,99408.10
2018-01-14T08:41:16.270Z,99406.46
2018-01-14T08:43:44.558Z,99397.51
2018-01-14T08:46:12.855Z,99410.80
2018-01-14T08:48:41.124Z,99411.53
2018-01-14T08:51:09.439Z,99414.16
2018-01-14T08:53:37.716Z,99411.27
2018-01-14T08:56:06.009Z,99404.97
2018-01-14T08:58:34.307Z,99412.73
2018-01-14T09:01:02.651Z,99417.00
2018-01-14T09:03:30.888Z,99409.97
2018-01-14T09:05:59.151Z,99417.25
2018-01-14T09:08:27.431Z,99421.16
2018-01-14T09:10:55.696Z,99424.58
2018-01-14T09:13:24.008Z,99420.95
2018-01-14T09:15:52.290Z,99423.78
2018-01-14T09:18:20.613Z,99425.48
2018-01-14T09:20:48.919Z,99422.21
2018-01-14T09:23:17.276Z,99423.14
2018-01-14T09:25:45.551Z,99428.44
2018-01-14T09:28:14.188Z,99432.06
2018-01-14T09:31:08.244Z,99429.48
2018-01-14T09:33:36.554Z,99429.36
2018-01-14T09:36:05.252Z,99432.31
2018-01-14T09:38:33.535Z,99432.92
2018-01-14T09:41:02.054Z,99429.43
2018-01-14T09:43:31.055Z,99425.95
2018-01-14T09:45:59.404Z,99433.98
2018-01-14T09:48:27.683Z,99444.41
2018-01-14T09:50:55.943Z,99440.06
2018-01-14T09:53:24.277Z,99440.97
2018-01-14T09:55:53.271Z,99445.23
2018-01-14T09:58:21.544Z,99445.59
2018-01-14T10:00:49.856Z,99444.88
2018-01-14T10:03:18.149Z,99441.25
2018-01-14T10:05:46.435Z,99443.31
2018-01-14T10:08:14.735Z,99438.42
2018-01-14T10:10:43.091Z,99438.27
2018-01-14T10:13:11.361Z,99440.81
2018-01-14T10:15:39.654Z,99437.73
2018-01-14T10:18:07.936Z,99435.47
2018-01-14T10:20:36.224Z,99434.16
2018-01-14T10:23:05.472Z,99426.55
2018-01-14T10:25:33.793Z,99423.66
2018-01-14T10:28:02.100Z,99423.74
2018-01-14T10:30:30.331Z,99425.69
2018-01-14T10:32:58.623Z,99421.44
2018-01-14T10:35:26.899Z,99418.31
2018-01-14T10:37:55.226Z,99415.36
2018-01-14T10:40:23.492Z,99407.13
2018-01-14T10:42:51.817Z,99413.42
2018-01-14T10:45:20.100Z,99407.34
2018-01-14T10:47:48.450Z,99405.41
2018-01-14T10:50:16.728Z,99403.90
2018-01-14T10:52:45.011Z,99400.22
2018-01-14T10:55:14.148Z,99399.42
2018-01-14T10:57:42.467Z,99398.00
2018-01-14T11:00:10.743Z,99401.34
2018-01-14T11:02:39.021Z,99397.89
2018-01-14T11:05:07.330Z,99391.09
2018-01-14T11:07:35.588Z,99386.88
2018-01-14T11:10:03.904Z,99390.31
2018-01-14T11:12:32.180Z,99388.91
2018-01-14T11:15:01.230Z,99385.16
2018-01-14T11:17:29.511Z,99385.39
2018-01-14T11:19:57.818Z,99389.64
2018-01-14T11:22:26.136Z,99390.05
2018-01-14T11:24:54.419Z,99388.94
2018-01-14T11:27:22.717Z,99387.45
2018-01-14T11:29:51.855Z,99393.65
2018-01-14T11:32:20.148Z,99389.72
2018-01-14T11:34:48.480Z,99390.38
2018-01-14T11:37:16.779Z,99385.14
2018-01-14T11:39:45.075Z,99388.43
2018-01-14T11:42:13.379Z,99387.12
2018-01-14T11:44:41.698Z,99387.38
2018-01-14T11:47:09.952Z,99381.95
2018-01-14T11:49:38.230Z,99384.63
2018-01-14T11:52:06.558Z,99379.06
2018-01-14T11:54:34.819Z,99373.32
2018-01-14T11:57:03.142Z,99374.05
2018-01-14T11:59:31.484Z,99371.38
2018-01-14T12:01:59.755Z,99370.38
2018-01-14T12:04:28.043Z,99374.64
2018-01-14T12:06:56.358Z,99371.89
2018-01-14T12:09:24.648Z,99348.13
2018-01-14T12:11:52.930Z,99361.78
2018-01-14T12:14:21.224Z,99372.49
2018-01-14T12:16:49.532Z,99361.11
2018-01-14T12:19:17.850Z,99357.44
2018-01-14T12:21:46.138Z,99360.05
2018-01-14T12:24:14.708Z,99361.53
2018-01-14T12:26:43.001Z,99357.79
2018-01-14T12:29:11.369Z,99366.48
2018-01-14T12:31:40.270Z,99363.12
2018-01-14T12:37:11.162Z,99366.16
2018-01-14T12:39:40.138Z,99345.87
2018-01-14T12:42:08.455Z,99358.84
2018-01-14T12:44:36.755Z,99363.92
2018-01-14T12:47:05.054Z,99367.44
2018-01-14T12:49:33.379Z,99362.70
2018-01-14T12:52:01.659Z,99372.50
2018-01-14T12:54:29.974Z,99333.21
2018-01-14T12:56:58.268Z,99370.20
2018-01-14T12:59:26.585Z,99371.70
2018-01-14T13:01:54.985Z,99370.78
2018-01-14T13:04:23.267Z,99374.17
2018-01-14T13:06:51.563Z,99369.91
2018-01-14T13:09:19.832Z,99373.00
2018-01-14T13:11:48.160Z,99368.23
2018-01-14T13:14:16.437Z,99375.23
2018-01-14T13:16:44.727Z,99373.39
2018-01-14T13:19:13.015Z,99362.02
2018-01-14T13:21:41.320Z,99365.69
2018-01-14T13:24:09.688Z,99369.66
2018-01-14T13:26:37.932Z,99370.98
2018-01-14T13:29:06.238Z,99375.49
2018-01-14T13:31:34.535Z,99373.31
2018-01-14T13:34:02.826Z,99371.01
2018-01-14T13:36:31.100Z,99358.59
2018-01-14T13:38:59.415Z,99367.15
2018-01-14T13:41:28.471Z,99355.13
2018-01-14T13:43:56.782Z,99373.09
2018-01-14T13:46:25.091Z,99371.69
2018-01-14T13:48:53.709Z,99358.19
2018-01-14T13:51:21.955Z,99369.49
2018-01-14T13:53:50.232Z,99375.95
2018-01-14T13:56:18.519Z,99370.94
2018-01-14T13:58:46.788Z,99370.30
2018-01-14T14:01:15.160Z,99369.40
2018-01-14T14:03:43.402Z,99370.97
2018-01-14T14:06:11.703Z,99378.00
2018-01-14T14:08:39.963Z,99377.61
2018-01-14T14:11:08.623Z,99369.08
2018-01-14T14:13:37.430Z,99382.13
2018-01-14T14:16:09.545Z,99282.10
2018-01-14T14:18:38.828Z,99380.88
2018-01-14T14:21:07.118Z,99381.78
2018-01-14T14:23:35.388Z,99377.17
2018-01-14T14:26:04.367Z,99380.70
2018-01-14T14:28:32.614Z,99374.58
2018-01-14T14:31:01.775Z,99373.36
2018-01-14T14:33:30.043Z,99379.82
2018-01-14T14:35:58.339Z,99380.37
2018-01-14T14:38:26.613Z,99379.09
2018-01-14T14:40:54.908Z,99378.83
2018-01-14T14:43:23.226Z,99388.44
2018-01-14T14:45:51.488Z,99386.89
2018-01-14T14:48:19.806Z,99382.91
2018-01-14T14:50:48.059Z,99374.59
2018-01-14T14:53:16.411Z,99385.30
2018-01-14T14:55:44.669Z,99390.71
2018-01-14T14:58:13.115Z,99385.30
2018-01-14T15:00:41.330Z,99382.75
2018-01-14T15:03:09.636Z,99387.05
2018-01-14T15:05:37.949Z,99384.48
2018-01-14T15:08:06.327Z,99382.77
2018-01-14T15:10:34.612Z,99377.35
2018-01-14T15:13:02.922Z,99376.65
2018-01-14T15:15:31.197Z,99373.41
2018-01-14T15:17:59.514Z,99379.07
2018-01-14T15:20:27.775Z,99372.93
2018-01-14T15:22:56.059Z,99385.05
2018-01-14T15:25:24.349Z,99388.59
2018-01-14T15:27:52.624Z,99388.57
2018-01-14T15:30:20.918Z,99390.98
2018-01-14T15:32:49.204Z,99379.97
2018-01-14T15:35:17.495Z,99381.61
2018-01-14T15:37:45.771Z,99391.20
2018-01-14T15:40:14.062Z,99393.20
2018-01-14T15:42:42.343Z,99393.66
2018-01-14T15:45:10.674Z,99401.70
2018-01-14T15:47:38.947Z,99394.16
2018-01-14T15:50:07.209Z,99397.09
2018-01-14T15:52:35.509Z,99394.97
2018-01-14T15:55:03.775Z,99381.11
2018-01-14T15:57:32.079Z,99402.71
2018-01-14T16:00:00.342Z,99399.03
2018-01-14T16:02:28.635Z,99392.80
2018-01-14T16:04:56.952Z,99394.31
2018-01-14T16:07:26.252Z,99396.41
2018-01-14T16:09:54.607Z,99401.99
2018-01-14T16:12:22.909Z,99399.50
2018-01-14T16:14:51.187Z,99400.41
2018-01-14T16:17:19.468Z,99400.08
2018-01-14T16:19:47.733Z,99406.88
2018-01-14T16:22:16.034Z,99402.45
2018-01-14T16:24:44.292Z,99407.53
2018-01-14T16:27:12.566Z,99404.17
2018-01-14T16:29:40.844Z,99399.72
2018-01-14T16:32:09.115Z,99410.45
2018-01-14T16:34:37.397Z,99410.84
2018-01-14T16:37:05.649Z,99413.47
2018-01-14T16:39:33.958Z,99421.18
2018-01-14T16:42:02.261Z,99413.06
2018-01-14T16:44:30.507Z,99394.53
2018-01-14T16:46:58.776Z,99414.52
2018-01-14T16:49:27.057Z,99410.83
2018-01-14T16:51:55.329Z,99413.41
2018-01-14T16:54:23.612Z,99416.33
2018-01-14T16:56:51.868Z,99406.25
2018-01-14T16:59:20.161Z,99414.68
2018-01-14T17:01:48.439Z,99413.14
2018-01-14T17:04:16.694Z,99399.06
2018-01-14T17:06:45.030Z,99410.97
2018-01-14T17:09:13.261Z,99412.94
2018-01-14T17:11:41.539Z,99416.81
2018-01-14T17:14:09.811Z,99410.27
2018-01-14T17:16:38.556Z,99412.48
2018-01-14T17:19:06.847Z,99410.97
2018-01-14T17:21:35.195Z,99411.59
2018-01-14T17:24:03.461Z,99414.13
2018-01-14T17:26:31.742Z,99411.61
2018-01-14T17:28:59.989Z,99416.75
2018-01-14T17:31:28.276Z,99413.05
2018-01-14T17:33:56.543Z,99415.22
2018-01-14T17:36:24.843Z,99417.45
2018-01-14T17:38:53.140Z,99418.91
2018-01-14T17:41:21.395Z,99415.85
2018-01-14T17:43:49.676Z,99408.05
2018-01-14T17:46:17.950Z,99409.17
2018-01-14T17:48:46.231Z,99417.70
2018-01-14T17:51:14.507Z,99400.69
2018-01-14T17:53:42.828Z,99412.78
2018-01-14T17:56:11.091Z,99411.12
2018-01-14T17:58:39.408Z,99415.05
2018-01-14T18:01:07.651Z,99414.73
2018-01-14T18:03:35.955Z,99412.06
2018-01-14T18:06:04.211Z,99405.63
2018-01-14T18:08:32.483Z,99413.45
2018-01-14T18:11:00.784Z,99400.98
2018-01-14T18:13:29.035Z,99417.66
2018-01-14T18:15:57.330Z,99414.86
2018-01-14T18:18:25.589Z,99413.38
2018-01-14T18:20:53.870Z,99416.11
2018-01-14T18:23:22.126Z,99407.89
2018-01-14T18:25:50.419Z,99403.88
2018-01-14T18:28:18.695Z,99406.70
2018-01-14T18:30:46.986Z,99403.91
2018-01-14T18:33:15.233Z,99408.16
2018-01-14T18:35:43.736Z,99405.24
2018-01-14T18:38:12.004Z,99409.95
2018-01-14T18:40:40.322Z,99413.05
2018-01-14T18:43:08.566Z,99416.78
2018-01-14T18:45:48.682Z,99417.71
2018-01-14T18:48:16.927Z,99420.23
2018-01-14T18:50:45.184Z,99406.63
2018-01-14T18:53:13.458Z,99422.89
2018-01-14T18:55:41.733Z,99421.30
2018-01-14T18:58:10.048Z,99420.28
2018-01-14T19:00:38.344Z,99415.77
2018-01-14T19:03:06.582Z,99421.89
2018-01-14T19:05:34.840Z,99413.97
2018-01-14T19:08:03.147Z,99416.06
2018-01-14T19:10:31.432Z,99418.19
2018-01-14T19:12:59.724Z,99416.88
2018-01-14T19:15:27.991Z,99418.69
2018-01-14T19:17:56.498Z,99413.46
2018-01-14T19:20:24.753Z,99414.67
2018-01-14T19:22:53.051Z,99413.36
2018-01-14T19:25:21.314Z,99411.83
2018-01-14T19:27:49.576Z,99407.61
2018-01-14T19:30:17.871Z,99390.67
2018-01-14T19:32:46.124Z,99402.88
2018-01-14T19:35:14.418Z,99413.78
2018-01-14T19:37:42.688Z,99415.19
2018-01-14T19:40:10.967Z,99414.77
2018-01-14T19:42:39.238Z,99411.58
2018-01-14T19:45:07.536Z,99412.58
2018-01-14T19:47:35.790Z,99417.20
2018-01-14T19:50:04.099Z,99413.06
2018-01-14T19:52:32.948Z,99397.22
2018-01-14T19:55:01.270Z,99415.50
2018-01-14T19:57:30.395Z,99416.70
2018-01-14T19:59:59.480Z,99429.14
2018-01-14T20:02:27.753Z,99401.05
2018-01-14T20:04:56.004Z,99411.69
2018-01-14T20:07:24.315Z,99409.97
2018-01-14T20:09:53.512Z,99419.80
2018-01-14T20:12:21.795Z,99419.38
2018-01-14T20:14:50.057Z,99417.38
2018-01-14T20:17:18.342Z,99411.17
2018-01-14T20:19:46.600Z,99409.86
2018-01-14T20:22:14.915Z,99411.87
2018-01-14T20:24:43.176Z,99415.38
2018-01-14T20:27:11.451Z,99425.91
2018-01-14T20:29:39.882Z,99430.91
2018-01-14T20:32:08.164Z,99436.85
2018-01-14T20:37:03.760Z,99433.92
2018-01-14T20:39:32.093Z,99429.59
2018-01-14T20:42:00.358Z,99440.94
2018-01-14T20:44:28.651Z,99445.24
2018-01-14T20:46:56.904Z,99442.23
2018-01-14T20:49:25.819Z,99436.20
2018-01-14T20:51:54.071Z,99439.48
2018-01-14T20:54:22.413Z,99432.44
2018-01-14T20:56:50.793Z,99452.50
2018-01-14T20:59:19.031Z,99449.30
2018-01-14T21:01:47.345Z,99448.84
2018-01-14T21:04:15.597Z,99442.31
2018-01-14T21:06:43.872Z,99441.10
2018-01-14T21:09:12.119Z,99435.09
2018-01-14T21:11:40.417Z,99433.80
2018-01-14T21:14:08.724Z,99431.08
2018-01-14T21:16:36.969Z,99428.47
2018-01-14T21:19:05.243Z,99433.79
2018-01-14T21:21:33.516Z,99427.86
2018-01-14T21:24:01.781Z,99431.20
2018-01-14T21:26:30.040Z,99432.91
2018-01-14T21:28:58.294Z,99431.13
2018-01-14T21:31:26.596Z,99430.61
2018-01-14T21:33:54.942Z,99419.88
2018-01-14T21:36:23.184Z,99420.22
2018-01-14T21:38:51.455Z,99413.87
2018-01-14T21:41:19.737Z,99405.22
2018-01-14T21:43:48.037Z,99411.10
2018-01-14T21:46:16.294Z,99414.20
2018-01-14T21:48:44.597Z,99404.39
2018-01-14T21:51:12.842Z,99406.61
2018-01-14T21:53:41.122Z,99403.13
2018-01-14T21:56:09.386Z,99394.34
2018-01-14T21:58:37.677Z,99394.91
2018-01-14T22:01:05.930Z,99391.90
2018-01-14T22:03:34.211Z,99389.27
2018-01-14T22:06:02.481Z,99388.94
2018-01-14T22:08:30.762Z,99390.35
2018-01-14T22:10:59.037Z,99387.66
2018-01-14T22:13:27.350Z,99360.96
2018-01-14T22:15:55.615Z,99382.05
2018-01-14T22:18:23.894Z,99383.87
2018-01-14T22:20:52.163Z,99382.95
2018-01-14T22:23:20.409Z,99373.20
2018-01-14T22:25:48.690Z,99380.88
2018-01-14T22:28:16.942Z,99380.41
2018-01-14T22:30:45.227Z,99385.21
2018-01-14T22:33:13.486Z,99379.53
2018-01-14T22:35:41.812Z,99386.34
2018-01-14T22:38:10.075Z,99377.72
2018-01-14T22:40:38.351Z,99381.63
2018-01-14T22:43:06.670Z,99388.63
2018-01-14T22:45:34.953Z,99377.17
2018-01-14T22:48:03.281Z,99378.35
2018-01-14T22:50:32.648Z,99378.19
2018-01-14T22:53:01.012Z,99377.44
2018-01-14T22:55:29.239Z,99379.43
2018-01-14T22:57:57.630Z,99377.34
2018-01-14T23:00:25.895Z,99376.56
2018-01-14T23:02:54.233Z,99373.88
2018-01-14T23:05:22.523Z,99376.97
2018-01-14T23:07:50.808Z,99379.18
2018-01-14T23:10:19.131Z,99381.64
2018-01-14T23:12:47.785Z,99377.61
2018-01-14T23:15:16.040Z,99377.11
2018-01-14T23:17:44.664Z,99375.93
2018-01-14T23:20:12.951Z,99370.58
2018-01-14T23:22:41.212Z,99374.97
2018-01-14T23:25:09.514Z,99371.96
2018-01-14T23:27:38.606Z,99381.59
2018-01-14T23:30:06.908Z,99372.25
2018-01-14T23:32:35.227Z,99382.90
2018-01-14T23:35:03.524Z,99388.20
2018-01-14T23:37:31.795Z,99393.34
2018-01-14T23:40:00.137Z,99386.83
2018-01-14T23:42:28.428Z,99386.22
2018-01-14T23:44:56.729Z,99388.53
2018-01-14T23:47:24.993Z,99391.34
2018-01-14T23:49:53.373Z,99386.25
2018-01-14T23:52:21.642Z,99390.98
2018-01-14T23:54:49.921Z,99386.88
2018-01-14T23:57:18.223Z,99370.13
2018-01-14T23:59:46.496Z,99381.69
